Time;durP1;ratioP1;P1;durP2;ratioP2;P2;SDS_P1;SDS_P2;PMS_P1;PMS_P2;Temp;Humidity;BMP_temperature;BMP_pressure;BME280_temperature;BME280_humidity;BME280_pressure;Samples;Min_cycle;Max_cycle;Signal;HPM_P1;HPM_P2
2023/07/28 00:00:33;;;;;;;5.20;4.53;;;18.60;99.90;;;;;;4958351;28;20837;-78
2023/07/28 00:03:10;;;;;;;4.50;4.10;;;18.50;99.90;;;;;;4957026;28;20458;-78
2023/07/28 00:05:47;;;;;;;5.13;4.73;;;18.50;99.90;;;;;;4974594;28;20469;-79
2023/07/28 00:08:30;;;;;;;4.33;3.97;;;18.30;99.90;;;;;;4973629;28;20457;-79
2023/07/28 00:11:30;;;;;;;6.13;4.50;;;18.40;99.90;;;;;;4975004;28;20480;-79
2023/07/28 00:14:33;;;;;;;11.70;5.00;;;18.40;99.90;;;;;;4969893;28;20449;-78
2023/07/28 00:17:28;;;;;;;4.73;4.33;;;18.40;99.90;;;;;;4979096;28;20512;-78
2023/07/28 00:20:13;;;;;;;4.70;4.40;;;18.40;99.90;;;;;;4975423;28;20472;-78
2023/07/28 00:22:58;;;;;;;5.30;4.60;;;18.30;99.90;;;;;;4978978;28;20465;-77
2023/07/28 00:25:46;;;;;;;;;;;;;;;;;;;;;
2023/07/28 00:28:48;;;;;;;;;;;;;;;;;;;;;
2023/07/28 00:31:55;;;;;;;4.13;3.73;;;18.30;99.90;;;;;;4988066;28;20433;-78
2023/07/28 00:34:42;;;;;;;4.83;4.20;;;18.30;99.90;;;;;;4973975;28;20529;-77
2023/07/28 00:37:26;;;;;;;4.20;3.13;;;18.20;99.90;;;;;;4973564;28;20557;-78
2023/07/28 00:40:19;;;;;;;3.30;3.10;;;18.30;99.90;;;;;;4975552;28;20457;-78
2023/07/28 00:43:08;;;;;;;3.47;3.17;;;18.30;99.90;;;;;;4983572;28;20477;-78
2023/07/28 00:45:47;;;;;;;3.80;3.40;;;18.30;99.90;;;;;;4980954;28;20989;-78
2023/07/28 00:48:37;;;;;;;3.50;3.30;;;18.30;99.90;;;;;;4987158;28;20465;-80
2023/07/28 00:51:26;;;;;;;4.20;3.80;;;18.30;99.90;;;;;;4980134;28;20457;-79
2023/07/28 00:54:42;;;;;;;3.60;3.40;;;18.30;99.90;;;;;;4973257;28;21024;-79
2023/07/28 00:57:43;;;;;;;;;;;;;;;;;;;;;
2023/07/28 01:03:57;;;;;;;3.90;3.60;;;18.30;99.90;;;;;;4985407;28;20430;-78
2023/07/28 01:10:17;;;;;;;3.50;3.30;;;18.20;99.90;;;;;;4832013;29;20462;-77
2023/07/28 01:13:04;;;;;;;3.40;3.20;;;18.20;99.90;;;;;;4886698;29;20471;-79
2023/07/28 01:15:51;;;;;;;3.40;3.10;;;18.20;99.90;;;;;;4894145;29;20498;-78
2023/07/28 01:19:00;;;;;;;;;;;;;;;;;;;;;
2023/07/28 01:22:29;;;;;;;3.70;3.40;;;18.30;99.90;;;;;;4923840;28;20473;-78
2023/07/28 01:26:09;;;;;;;4.30;4.00;;;18.30;99.90;;;;;;4976570;28;20482;-76
2023/07/28 01:29:15;;;;;;;3.40;3.20;;;18.30;99.90;;;;;;4992906;28;20486;-75
2023/07/28 01:31:50;;;;;;;4.80;3.50;;;18.20;99.90;;;;;;4997304;28;20504;-77
2023/07/28 01:34:31;;;;;;;3.70;3.40;;;18.30;99.90;;;;;;4991814;28;20469;-82
2023/07/28 01:37:11;;;;;;;3.50;3.13;;;18.20;99.90;;;;;;4979359;28;20540;-78
2023/07/28 01:39:48;;;;;;;3.43;3.13;;;18.20;99.90;;;;;;4994843;28;20560;-78
2023/07/28 01:42:45;;;;;;;4.40;4.00;;;18.20;99.90;;;;;;4995898;28;20726;-78
2023/07/28 01:45:29;;;;;;;3.43;3.13;;;18.20;99.90;;;;;;4994752;28;20473;-77
2023/07/28 01:48:09;;;;;;;2.73;2.63;;;18.20;99.90;;;;;;4980508;28;20505;-77
2023/07/28 01:51:09;;;;;;;3.13;2.83;;;18.20;99.90;;;;;;4987114;28;20478;-79
2023/07/28 01:53:53;;;;;;;3.73;3.43;;;18.20;99.90;;;;;;4987414;28;20461;-78
2023/07/28 01:56:28;;;;;;;3.37;3.00;;;18.20;99.90;;;;;;4990961;28;20482;-79
2023/07/28 01:59:17;;;;;;;3.57;3.27;;;18.20;99.90;;;;;;4978981;28;20541;-79
2023/07/28 02:02:00;;;;;;;3.10;2.87;;;18.00;99.90;;;;;;4994598;28;20562;-78
2023/07/28 02:04:46;;;;;;;3.47;3.20;;;18.20;99.90;;;;;;4994153;28;20512;-76
2023/07/28 02:07:23;;;;;;;5.17;3.10;;;18.20;99.90;;;;;;4993398;28;20454;-79
2023/07/28 02:09:58;;;;;;;3.10;2.90;;;18.20;99.90;;;;;;4986118;28;20512;-78
2023/07/28 02:12:29;;;;;;;3.87;3.40;;;18.20;99.90;;;;;;4990654;28;20452;-79
2023/07/28 02:15:09;;;;;;;3.20;2.90;;;18.20;99.90;;;;;;4985198;28;20481;-77
2023/07/28 02:17:42;;;;;;;3.10;2.90;;;18.20;99.90;;;;;;4982600;28;20481;-79
2023/07/28 02:20:17;;;;;;;3.37;3.00;;;18.10;99.90;;;;;;4984586;28;20572;-78
2023/07/28 02:23:01;;;;;;;3.27;2.97;;;18.30;99.90;;;;;;4981509;28;20453;-78
2023/07/28 02:25:39;;;;;;;3.83;3.53;;;18.10;99.90;;;;;;4979898;28;20489;-75
2023/07/28 02:28:32;;;;;;;;;;;;;;;;;;;;;
2023/07/28 02:31:08;;;;;;;3.57;3.37;;;18.00;99.90;;;;;;4986276;28;20429;-79
2023/07/28 02:34:12;;;;;;;3.20;3.00;;;18.00;99.90;;;;;;4986900;28;20873;-79
2023/07/28 02:36:51;;;;;;;3.60;3.40;;;18.00;99.90;;;;;;4978755;28;20528;-78
2023/07/28 02:39:32;;;;;;;3.50;3.30;;;18.00;99.90;;;;;;4983814;28;20537;-81
2023/07/28 02:42:06;;;;;;;3.17;2.97;;;17.90;99.90;;;;;;4986727;28;20441;-79
2023/07/28 02:44:38;;;;;;;3.70;3.40;;;17.90;99.90;;;;;;4985570;28;20515;-80
2023/07/28 02:47:09;;;;;;;3.60;3.30;;;17.80;99.90;;;;;;4983674;28;20528;-78
2023/07/28 02:49:42;;;;;;;3.67;3.37;;;17.80;99.90;;;;;;4979926;28;20846;-80
2023/07/28 02:52:19;;;;;;;3.93;3.57;;;17.80;99.90;;;;;;4974352;28;20718;-79
2023/07/28 02:54:56;;;;;;;4.13;3.83;;;17.80;99.90;;;;;;4978773;28;20465;-79
2023/07/28 03:00:23;;;;;;;4.37;3.57;;;17.70;99.90;;;;;;4974002;28;20481;-79
2023/07/28 03:03:03;;;;;;;5.67;3.70;;;17.70;99.90;;;;;;4978300;28;20736;-80
2023/07/28 03:05:47;;;;;;;4.13;3.73;;;17.70;99.90;;;;;;4978454;28;20533;-79
2023/07/28 03:08:25;;;;;;;3.73;3.53;;;17.60;99.90;;;;;;4978480;28;20445;-81
2023/07/28 03:11:05;;;;;;;3.70;3.40;;;17.60;99.90;;;;;;4977400;28;20497;-79
2023/07/28 03:13:51;;;;;;;3.73;3.50;;;17.60;99.90;;;;;;4978501;28;20524;-78
2023/07/28 03:16:35;;;;;;;4.10;3.80;;;17.60;99.90;;;;;;4982389;28;20464;-79
2023/07/28 03:19:17;;;;;;;4.20;3.90;;;17.60;99.90;;;;;;4982653;28;20441;-78
2023/07/28 03:24:51;;;;;;;4.17;3.87;;;17.60;99.90;;;;;;4978885;28;20461;-78
2023/07/28 03:27:26;;;;;;;4.00;3.70;;;17.60;99.90;;;;;;4979047;28;20457;-79
2023/07/28 03:30:08;;;;;;;4.13;3.83;;;17.50;99.90;;;;;;4979723;28;20475;-78
2023/07/28 03:32:54;;;;;;;4.80;3.50;;;17.50;99.90;;;;;;4970973;28;20468;-80
2023/07/28 03:35:28;;;;;;;4.10;3.70;;;17.50;99.90;;;;;;4976973;28;20487;-79
2023/07/28 03:38:19;;;;;;;4.67;4.10;;;17.40;99.90;;;;;;4979079;28;20576;-79
2023/07/28 03:40:56;;;;;;;4.67;4.37;;;17.40;99.90;;;;;;4978567;28;20485;-78
2023/07/28 03:43:32;;;;;;;3.47;3.27;;;17.40;99.90;;;;;;4972192;28;20460;-78
2023/07/28 03:46:08;;;;;;;3.90;3.60;;;17.40;99.90;;;;;;4979674;28;20473;-81
2023/07/28 03:51:41;;;;;;;4.20;3.90;;;17.60;99.90;;;;;;4977406;28;20538;-78
2023/07/28 03:54:17;;;;;;;3.77;3.47;;;17.60;99.90;;;;;;4979219;28;20779;-80
2023/07/28 03:56:56;;;;;;;3.40;3.10;;;17.70;99.90;;;;;;4978547;28;20519;-80
2023/07/28 03:59:35;;;;;;;3.60;3.30;;;18.40;99.90;;;;;;4979029;28;20461;-78
2023/07/28 04:02:38;;;;;;;3.60;3.30;;;17.70;99.90;;;;;;4979665;28;20465;-79
2023/07/28 04:05:19;;;;;;;3.43;3.23;;;17.80;99.90;;;;;;4971639;28;20612;-81
2023/07/28 04:07:52;;;;;;;4.10;3.40;;;17.80;99.90;;;;;;4978645;28;20440;-79
2023/07/28 04:13:27;;;;;;;3.90;3.60;;;17.30;99.90;;;;;;4978405;28;20449;-80
2023/07/28 04:16:30;;;;;;;6.00;4.87;;;17.90;99.90;;;;;;4980377;28;20726;-80
2023/07/28 04:19:27;;;;;;;;;;;;;;;;;;;;;
2023/07/28 04:22:31;;;;;;;4.40;4.00;;;17.90;99.90;;;;;;4991540;28;20426;-79
2023/07/28 04:25:16;;;;;;;4.00;3.70;;;17.90;99.90;;;;;;4982927;28;20523;-78
2023/07/28 04:28:12;;;;;;;4.07;3.77;;;17.90;99.90;;;;;;4981299;28;20634;-80
2023/07/28 04:30:58;;;;;;;4.93;4.20;;;17.90;99.90;;;;;;4981862;28;20484;-81
2023/07/28 04:33:51;;;;;;;4.03;3.73;;;17.90;99.90;;;;;;4980702;28;20488;-81
2023/07/28 04:36:43;;;;;;;3.90;3.47;;;17.90;99.90;;;;;;4976205;28;20488;-79
2023/07/28 04:39:40;;;;;;;4.67;4.37;;;17.90;99.90;;;;;;4975142;28;20445;-78
2023/07/28 04:42:30;;;;;;;3.63;3.33;;;18.00;99.90;;;;;;4980173;28;20492;-81
2023/07/28 04:45:21;;;;;;;4.07;3.67;;;18.10;99.90;;;;;;4975266;28;20528;-80
2023/07/28 04:48:09;;;;;;;3.57;3.27;;;18.00;99.90;;;;;;4980660;28;20801;-80
2023/07/28 04:51:08;;;;;;;4.27;3.87;;;18.00;99.90;;;;;;4981875;28;20457;-78
2023/07/28 04:54:00;;;;;;;;;;;;;;;;;;;;;
2023/07/28 04:56:52;;;;;;;4.40;4.00;;;17.90;99.90;;;;;;4986280;28;20442;-79
2023/07/28 04:59:48;;;;;;;4.73;4.03;;;17.80;99.90;;;;;;4980085;28;20512;-78
2023/07/28 05:02:29;;;;;;;4.70;4.20;;;17.80;99.90;;;;;;4987993;28;20429;-79
2023/07/28 05:05:09;;;;;;;4.80;4.50;;;17.80;99.90;;;;;;4986490;28;20512;-79
2023/07/28 05:07:57;;;;;;;4.83;4.43;;;17.70;99.90;;;;;;4987712;28;20489;-77
2023/07/28 05:13:44;;;;;;;5.57;4.10;;;17.90;99.90;;;;;;4987083;28;20437;-78
2023/07/28 05:16:15;;;;;;;5.10;4.60;;;17.80;99.90;;;;;;4992137;28;20488;-78
2023/07/28 05:18:54;;;;;;;4.80;4.40;;;17.60;99.90;;;;;;4992099;28;20482;-78
2023/07/28 05:21:26;;;;;;;5.50;5.00;;;17.80;99.90;;;;;;4989257;28;20581;-78
2023/07/28 05:23:57;;;;;;;5.20;4.73;;;17.80;99.90;;;;;;4993205;28;20445;-79
2023/07/28 05:26:33;;;;;;;6.03;4.40;;;17.50;99.90;;;;;;4993595;28;20484;-78
2023/07/28 05:29:05;;;;;;;6.40;5.00;;;17.70;99.90;;;;;;4993015;28;20476;-75
2023/07/28 05:31:34;;;;;;;8.47;4.97;;;17.90;99.90;;;;;;4993861;28;20476;-77
2023/07/28 05:34:17;;;;;;;;;;;;;;;;;;;;;
2023/07/28 05:36:48;;;;;;;5.00;4.60;;;17.80;99.90;;;;;;4992709;28;20424;-80
2023/07/28 05:39:19;;;;;;;7.20;6.50;;;17.70;99.90;;;;;;4981026;28;20473;-79
2023/07/28 05:42:11;;;;;;;6.30;5.80;;;17.70;99.90;;;;;;4982332;28;20469;-78
2023/07/28 05:44:46;;;;;;;12.57;6.57;;;17.70;99.90;;;;;;4984855;28;20465;-80
2023/07/28 05:47:21;;;;;;;6.60;5.40;;;17.80;99.90;;;;;;4979441;28;20492;-81
2023/07/28 05:49:55;;;;;;;10.43;5.93;;;18.00;99.90;;;;;;4985046;28;20541;-79
2023/07/28 05:52:26;;;;;;;7.20;6.10;;;17.80;99.90;;;;;;4984827;28;20438;-79
2023/07/28 05:55:25;;;;;;;6.63;4.60;;;17.90;99.90;;;;;;4984679;28;20473;-79
2023/07/28 05:58:25;;;;;;;6.40;5.80;;;17.90;99.90;;;;;;4985945;28;20492;-81
2023/07/28 06:00:59;;;;;;;7.87;6.03;;;17.90;99.90;;;;;;4982245;28;20472;-81
2023/07/28 06:03:33;;;;;;;7.67;6.27;;;18.00;99.90;;;;;;4978424;28;20523;-79
2023/07/28 06:06:23;;;;;;;14.77;13.10;;;17.90;99.90;;;;;;4975768;28;20465;-80
2023/07/28 06:08:55;;;;;;;11.90;10.70;;;17.90;99.90;;;;;;4984275;28;20472;-79
2023/07/28 06:11:26;;;;;;;7.00;6.40;;;17.90;99.90;;;;;;4982668;28;20489;-78
2023/07/28 06:14:13;;;;;;;7.50;6.10;;;17.90;99.90;;;;;;4969806;28;20461;-78
2023/07/28 06:16:47;;;;;;;7.40;5.97;;;17.90;99.90;;;;;;4981845;28;20449;-78
2023/07/28 06:19:23;;;;;;;7.57;6.83;;;17.90;99.90;;;;;;4981540;28;20583;-80
2023/07/28 06:22:05;;;;;;;6.57;5.80;;;18.00;99.90;;;;;;4981157;28;20521;-79
2023/07/28 06:24:34;;;;;;;7.93;7.13;;;18.00;99.90;;;;;;4982423;28;20477;-80
2023/07/28 06:27:08;;;;;;;9.10;6.60;;;18.00;99.90;;;;;;4983882;28;20497;-79
2023/07/28 06:29:37;;;;;;;8.10;6.10;;;18.00;99.90;;;;;;4980372;28;20449;-79
2023/07/28 06:32:23;;;;;;;8.00;6.43;;;18.00;99.90;;;;;;4976752;28;20459;-77
2023/07/28 06:35:00;;;;;;;6.70;5.97;;;18.00;99.90;;;;;;4972672;28;20458;-77
2023/07/28 06:37:34;;;;;;;5.73;5.23;;;17.90;99.90;;;;;;4981175;28;20457;-79
2023/07/28 06:40:14;;;;;;;5.83;5.23;;;18.10;99.90;;;;;;4980852;28;20437;-78
2023/07/28 06:42:58;;;;;;;5.30;4.80;;;18.10;99.90;;;;;;4973104;28;20469;-78
2023/07/28 06:45:30;;;;;;;6.27;5.77;;;18.10;99.90;;;;;;4979742;28;20523;-77
2023/07/28 06:48:02;;;;;;;6.77;6.20;;;18.10;99.90;;;;;;4981041;28;20434;-77
2023/07/28 06:50:35;;;;;;;7.03;6.33;;;18.20;99.90;;;;;;4995781;28;20465;-78
2023/07/28 06:53:14;;;;;;;6.60;5.63;;;18.20;99.90;;;;;;4975026;28;20460;-78
2023/07/28 06:55:45;;;;;;;5.87;5.30;;;18.30;99.90;;;;;;4973164;28;20487;-78
2023/07/28 06:58:14;;;;;;;7.77;5.20;;;18.30;99.90;;;;;;4966499;28;20997;-78
2023/07/28 07:00:49;;;;;;;7.60;6.00;;;18.40;99.90;;;;;;4972015;28;20560;-77
2023/07/28 07:03:27;;;;;;;8.00;6.00;;;18.40;99.90;;;;;;4977594;28;20491;-77
2023/07/28 07:06:06;;;;;;;11.70;6.20;;;18.40;99.90;;;;;;4973344;28;20507;-81
2023/07/28 07:08:39;;;;;;;9.20;6.77;;;18.40;99.90;;;;;;4977931;28;20484;-79
2023/07/28 07:11:11;;;;;;;10.03;6.27;;;18.50;99.90;;;;;;4978055;28;20483;-79
2023/07/28 07:13:44;;;;;;;5.97;5.47;;;18.50;99.90;;;;;;4975825;28;20466;-79
2023/07/28 07:16:19;;;;;;;6.43;5.83;;;18.60;99.90;;;;;;4978427;28;20556;-78
2023/07/28 07:18:48;;;;;;;6.27;5.77;;;18.60;99.90;;;;;;4977689;28;20483;-78
2023/07/28 07:21:34;;;;;;;7.03;6.30;;;18.60;99.90;;;;;;4978889;28;20481;-78
2023/07/28 07:24:14;;;;;;;6.33;5.40;;;18.70;99.90;;;;;;4974276;28;20497;-80
2023/07/28 07:26:53;;;;;;;5.73;5.33;;;18.80;99.90;;;;;;4970981;28;20473;-79
2023/07/28 07:29:42;;;;;;;9.63;6.10;;;18.80;99.90;;;;;;4981040;28;20449;-79
2023/07/28 07:32:11;;;;;;;6.57;5.23;;;18.90;99.90;;;;;;4983184;28;20461;-81
2023/07/28 07:34:41;;;;;;;5.77;5.23;;;19.00;99.90;;;;;;4983133;28;20477;-81
2023/07/28 07:37:18;;;;;;;6.53;6.03;;;19.00;99.90;;;;;;4988001;28;20437;-80
2023/07/28 07:39:48;;;;;;;7.20;6.43;;;19.10;99.90;;;;;;5000132;28;20478;-80
2023/07/28 07:42:29;;;;;;;7.40;6.73;;;19.20;99.90;;;;;;4996158;28;20516;-80
2023/07/28 07:45:15;;;;;;;;;;;;;;;;;;;;;
2023/07/28 07:47:52;;;;;;;7.60;6.80;;;19.40;99.90;;;;;;4980695;28;20457;-80
2023/07/28 07:50:29;;;;;;;6.87;6.20;;;19.40;99.90;;;;;;4982489;28;20456;-79
2023/07/28 07:53:17;;;;;;;7.10;6.50;;;19.40;99.90;;;;;;4981680;28;20527;-80
2023/07/28 07:55:47;;;;;;;5.83;5.30;;;19.40;99.90;;;;;;4971651;28;20482;-80
2023/07/28 07:58:44;;;;;;;6.37;5.83;;;19.40;99.90;;;;;;4977003;28;20935;-80
2023/07/28 08:01:22;;;;;;;6.40;5.80;;;19.50;99.90;;;;;;4990315;28;20553;-80
2023/07/28 08:03:50;;;;;;;6.90;6.30;;;19.60;99.90;;;;;;4980727;28;20843;-80
2023/07/28 08:06:21;;;;;;;7.00;6.40;;;19.60;99.90;;;;;;4981260;28;20576;-79
2023/07/28 08:09:02;;;;;;;7.23;6.50;;;19.60;99.90;;;;;;4982714;28;20467;-79
2023/07/28 08:11:46;;;;;;;6.90;6.20;;;19.60;99.90;;;;;;4988178;28;20517;-78
2023/07/28 08:14:26;;;;;;;6.30;5.70;;;19.70;99.90;;;;;;4988440;28;20469;-77
2023/07/28 08:19:50;;;;;;;7.07;5.73;;;19.70;99.90;;;;;;4977053;28;20516;-79
2023/07/28 08:22:29;;;;;;;7.60;5.10;;;19.80;99.90;;;;;;4979508;28;20453;-78
2023/07/28 08:25:06;;;;;;;5.57;5.00;;;19.80;99.90;;;;;;4978857;28;20484;-79
2023/07/28 08:30:41;;;;;;;7.87;5.70;;;19.90;99.90;;;;;;4983109;28;20835;-81
2023/07/28 08:35:58;;;;;;;6.37;5.57;;;20.00;99.90;;;;;;4962798;28;20469;-80
2023/07/28 08:38:36;;;;;;;7.50;5.37;;;20.00;99.90;;;;;;4964371;28;20553;-79
2023/07/28 08:41:08;;;;;;;6.60;6.00;;;20.10;99.90;;;;;;4961583;28;20489;-78
2023/07/28 08:43:45;;;;;;;6.70;6.17;;;20.20;99.90;;;;;;4974378;28;20461;-78
2023/07/28 08:46:24;;;;;;;7.63;6.10;;;20.10;99.90;;;;;;4977320;28;20563;-79
2023/07/28 08:49:24;;;;;;;6.40;5.80;;;20.20;99.90;;;;;;4978780;28;20453;-78
2023/07/28 08:52:29;;;;;;;6.80;6.20;;;20.10;99.90;;;;;;4978785;28;20460;-79
2023/07/28 08:55:07;;;;;;;6.23;5.63;;;21.00;99.90;;;;;;4960638;28;20494;-79
2023/07/28 08:57:42;;;;;;;5.73;5.23;;;20.30;99.90;;;;;;4965814;28;20469;-79
2023/07/28 09:00:22;;;;;;;6.87;5.10;;;20.50;99.90;;;;;;4964469;29;20515;-79
2023/07/28 09:03:04;;;;;;;7.00;5.20;;;20.50;99.90;;;;;;4974298;28;20475;-79
2023/07/28 09:05:45;;;;;;;5.70;5.10;;;20.50;99.90;;;;;;4982490;28;20500;-81
2023/07/28 09:08:26;;;;;;;5.50;5.00;;;20.50;99.90;;;;;;4980614;28;20460;-80
2023/07/28 09:10:59;;;;;;;5.80;4.40;;;20.50;99.90;;;;;;4980103;28;20461;-79
2023/07/28 09:13:36;;;;;;;6.30;4.53;;;20.50;99.90;;;;;;4976040;28;20461;-81
2023/07/28 09:16:29;;;;;;;8.80;4.30;;;20.70;99.90;;;;;;4978284;28;20509;-78
2023/07/28 09:19:34;;;;;;;5.63;4.73;;;20.80;99.90;;;;;;4975814;28;20532;-77
2023/07/28 09:22:22;;;;;;;8.33;6.43;;;20.80;99.90;;;;;;4969389;28;20449;-78
2023/07/28 09:24:55;;;;;;;6.80;6.20;;;20.70;99.90;;;;;;4977219;28;20523;-79
2023/07/28 09:27:29;;;;;;;7.17;6.40;;;20.60;99.90;;;;;;4975028;28;20461;-79
2023/07/28 09:30:09;;;;;;;7.43;6.83;;;20.60;99.90;;;;;;4975423;28;20815;-78
2023/07/28 09:32:42;;;;;;;7.80;7.20;;;20.60;99.90;;;;;;4977964;28;20877;-79
2023/07/28 09:35:12;;;;;;;11.67;7.27;;;20.60;99.90;;;;;;4978272;28;20480;-78
2023/07/28 09:38:14;;;;;;;6.30;5.73;;;20.80;99.90;;;;;;4979256;28;20488;-79
2023/07/28 09:40:49;;;;;;;6.03;5.43;;;20.80;99.90;;;;;;4978401;28;20465;-79
2023/07/28 09:43:26;;;;;;;5.93;5.43;;;21.00;99.90;;;;;;4971638;28;20868;-78
2023/07/28 09:46:12;;;;;;;6.83;6.13;;;21.00;99.90;;;;;;4973721;28;20753;-80
2023/07/28 09:48:51;;;;;;;6.70;6.10;;;21.00;99.90;;;;;;4982827;28;20453;-80
2023/07/28 09:56:10;;;;;;;;;;;;;;;;;;;;;
2023/07/28 10:06:01;;;;;;;;;;;;;;;;;;;;;
2023/07/28 10:08:48;;;;;;;4.37;4.00;;;21.50;99.90;;;;;;5000409;28;20433;-80
2023/07/28 10:11:27;;;;;;;5.13;4.63;;;21.60;99.90;;;;;;5000738;28;20480;-80
2023/07/28 10:17:14;;;;;;;3.73;3.43;;;21.80;99.90;;;;;;4999407;28;20425;-80
2023/07/28 10:20:03;;;;;;;3.70;3.40;;;21.80;99.90;;;;;;5005298;28;20471;-78
2023/07/28 10:22:56;;;;;;;3.90;3.60;;;21.70;99.90;;;;;;5005527;28;20564;-80
2023/07/28 10:25:55;;;;;;;4.10;3.70;;;21.70;99.90;;;;;;5002282;28;20582;-81
2023/07/28 10:28:59;;;;;;;4.70;4.30;;;21.70;99.90;;;;;;5003865;28;20429;-78
2023/07/28 10:31:52;;;;;;;7.87;7.17;;;21.80;99.90;;;;;;4998084;28;20479;-79
2023/07/28 10:34:30;;;;;;;4.57;4.17;;;21.80;99.90;;;;;;5001454;28;20516;-78
2023/07/28 10:37:22;;;;;;;3.97;3.77;;;21.90;99.90;;;;;;5006081;28;20445;-78
2023/07/28 10:50:27;;;;;;;5.07;3.87;;;22.10;99.90;;;;;;5038610;28;20448;-82
2023/07/28 10:53:22;;;;;;;74.20;66.93;;;22.10;99.90;;;;;;4977054;28;20449;-81
2023/07/28 10:56:10;;;;;;;30.80;28.03;;;22.20;99.90;;;;;;4983061;28;20463;-79
2023/07/28 10:59:06;;;;;;;5.30;4.40;;;22.30;99.90;;;;;;5021961;28;20479;-79
2023/07/28 11:01:56;;;;;;;7.17;4.33;;;22.30;99.90;;;;;;5019065;28;20466;-79
2023/07/28 11:04:45;;;;;;;4.50;3.93;;;22.30;99.90;;;;;;5021743;28;20494;-80
2023/07/28 11:10:41;;;;;;;4.37;4.07;;;;;;;;;;5001780;28;20838;-80
2023/07/28 11:13:38;;;;;;;3.60;3.40;;;22.60;99.90;;;;;;5013264;28;20474;-79
2023/07/28 11:20:15;;;;;;;4.07;3.13;;;23.00;99.90;;;;;;4996812;28;20552;-78
2023/07/28 11:23:10;;;;;;;3.50;3.00;;;23.20;99.90;;;;;;5005677;28;20463;-79
2023/07/28 11:26:11;;;;;;;2.77;2.50;;;23.40;99.90;;;;;;5018004;28;20475;-78
2023/07/28 11:29:02;;;;;;;1.93;1.83;;;23.50;99.90;;;;;;5014969;28;20447;-79
2023/07/28 11:31:52;;;;;;;1.30;1.30;;;23.70;99.90;;;;;;5017820;28;20506;-79
2023/07/28 11:34:53;;;;;;;1.67;1.57;;;23.60;99.90;;;;;;5013878;28;20460;-79
2023/07/28 11:38:14;;;;;;;1.73;1.53;;;23.50;99.90;;;;;;5013285;28;20513;-78
2023/07/28 11:47:16;;;;;;;1.60;1.50;;;23.50;99.90;;;;;;5011448;28;20466;-80
2023/07/28 11:50:07;;;;;;;4.47;1.77;;;23.60;99.90;;;;;;5005222;28;20446;-78
2023/07/28 11:53:03;;;;;;;3.60;1.57;;;24.00;99.90;;;;;;5013758;28;20444;-78
2023/07/28 11:55:53;;;;;;;1.63;1.50;;;23.90;99.90;;;;;;5013758;28;20464;-79
2023/07/28 11:58:54;;;;;;;1.30;1.30;;;24.00;99.90;;;;;;5013833;28;20443;-79
2023/07/28 12:01:57;;;;;;;;;;;;;;;;;;;;;
2023/07/28 12:08:21;;;;;;;15.23;13.77;;;23.80;99.90;;;;;;4996680;28;20855;-80
2023/07/28 12:15:06;;;;;;;3.97;3.70;;;23.70;99.90;;;;;;5017824;28;20451;-79
2023/07/28 12:24:23;;;;;;;1.47;1.43;;;23.10;99.90;;;;;;5009053;28;20503;-78
2023/07/28 12:30:39;;;;;;;1.90;1.80;;;23.30;99.90;;;;;;5012371;28;20599;-75
2023/07/28 12:33:55;;;;;;;2.10;2.00;;;23.30;99.90;;;;;;5016038;28;21042;-80
2023/07/28 12:36:42;;;;;;;2.17;2.07;;;23.00;99.90;;;;;;5019470;28;20506;-79
2023/07/28 12:39:25;;;;;;;2.10;2.00;;;22.90;99.90;;;;;;5016793;28;20831;-80
2023/07/28 12:42:08;;;;;;;2.20;2.10;;;22.60;99.90;;;;;;5007094;28;20474;-78
2023/07/28 12:45:08;;;;;;;2.33;2.13;;;23.10;99.90;;;;;;5023486;28;20471;-78
2023/07/28 12:54:24;;;;;;;1.90;1.80;;;22.90;99.90;;;;;;4956743;28;20449;-77
2023/07/28 13:10:30;;;;;;;2.40;2.23;;;23.50;99.90;;;;;;4953791;29;20489;-78
2023/07/28 13:13:12;;;;;;;2.23;2.03;;;23.50;99.90;;;;;;4959276;28;20966;-77
2023/07/28 13:19:58;;;;;;;3.17;1.83;;;23.60;99.90;;;;;;4932730;29;20465;-77
2023/07/28 13:22:50;;;;;;;2.70;2.60;;;23.50;99.90;;;;;;5011530;28;21021;-77
2023/07/28 13:25:38;;;;;;;2.77;2.57;;;23.40;99.90;;;;;;5020271;28;20995;-78
2023/07/28 13:38:51;;;;;;;2.80;2.60;;;23.30;99.90;;;;;;4930573;29;20451;-78
2023/07/28 13:42:14;;;;;;;;;;;;;;;;;;;;;
2023/07/28 13:48:21;;;;;;;3.33;3.00;;;22.80;99.90;;;;;;5017674;28;20505;-78
2023/07/28 14:04:55;;;;;;;4.73;3.80;;;21.80;99.90;;;;;;4889763;29;20999;-77
2023/07/28 14:08:03;;;;;;;184.17;168.57;;;21.60;99.90;;;;;;4880787;29;20461;-78
2023/07/28 14:10:58;;;;;;;24.47;22.17;;;21.40;99.90;;;;;;4954046;28;20442;-79
2023/07/28 14:16:53;;;;;;;7.60;4.17;;;21.40;99.90;;;;;;4975438;28;20432;-76
2023/07/28 14:32:48;;;;;;;5.20;4.70;;;20.40;99.90;;;;;;4934942;29;21039;-76
2023/07/28 14:35:54;;;;;;;31.33;28.30;;;20.40;99.90;;;;;;4934268;29;20471;-78
2023/07/28 14:38:55;;;;;;;21.27;19.43;;;20.30;99.90;;;;;;4940941;29;20479;-79
2023/07/28 14:49:00;;;;;;;6.10;4.37;;;20.60;99.90;;;;;;5022467;28;20679;-78
2023/07/28 14:58:40;;;;;;;6.30;5.70;;;20.70;99.90;;;;;;5022107;28;20527;-79
2023/07/28 15:04:55;;;;;;;5.07;4.67;;;20.70;99.90;;;;;;4955537;28;20959;-79
2023/07/28 15:07:48;;;;;;;5.10;4.50;;;20.70;99.90;;;;;;5023524;28;20455;-80
2023/07/28 15:10:26;;;;;;;4.60;4.23;;;20.70;99.90;;;;;;5019649;28;20555;-78
2023/07/28 15:13:12;;;;;;;4.70;4.03;;;20.70;99.90;;;;;;5016779;28;20516;-80
2023/07/28 15:15:47;;;;;;;5.07;4.67;;;20.80;99.90;;;;;;5019980;28;20464;-80
2023/07/28 15:18:25;;;;;;;5.47;5.07;;;20.80;99.90;;;;;;5020631;28;20486;-81
2023/07/28 15:20:59;;;;;;;321.87;292.00;;;20.80;99.90;;;;;;5019555;28;20494;-77
2023/07/28 15:23:32;;;;;;;279.63;255.97;;;20.70;99.90;;;;;;5016883;28;20562;-78
2023/07/28 15:26:22;;;;;;;105.87;95.87;;;20.80;99.90;;;;;;5019794;28;20482;-80
2023/07/28 15:29:00;;;;;;;71.17;65.00;;;21.10;99.90;;;;;;5020244;28;20543;-80
2023/07/28 15:31:50;;;;;;;6.50;5.90;;;21.20;99.90;;;;;;5013153;28;20459;-79
2023/07/28 15:34:43;;;;;;;5.20;4.73;;;21.20;99.90;;;;;;5009239;28;20488;-79
2023/07/28 15:37:19;;;;;;;4.80;4.40;;;21.10;99.90;;;;;;5015232;28;20463;-79
2023/07/28 15:40:02;;;;;;;4.80;4.33;;;21.00;99.90;;;;;;5016817;28;20444;-77
2023/07/28 15:42:37;;;;;;;4.30;4.00;;;20.90;99.90;;;;;;5016019;28;20487;-81
2023/07/28 15:45:22;;;;;;;10.93;9.90;;;20.80;99.90;;;;;;5013204;28;20490;-78
2023/07/28 15:55:36;;;;;;;10.33;9.53;;;20.90;99.90;;;;;;4804551;29;20915;-79
2023/07/28 16:05:17;;;;;;;6.37;5.70;;;20.70;99.90;;;;;;4993218;28;20494;-79
2023/07/28 16:11:15;;;;;;;6.50;6.00;;;20.70;99.90;;;;;;5004955;28;20447;-80
2023/07/28 16:20:49;;;;;;;9.10;7.30;;;20.50;99.90;;;;;;5020498;28;20450;-79
2023/07/28 16:24:16;;;;;;;;;;;;;;;;;;;;;
2023/07/28 16:27:13;;;;;;;7.60;7.00;;;20.60;99.90;;;;;;4996951;28;20456;-79
2023/07/28 16:30:40;;;;;;;8.23;6.97;;;20.60;99.90;;;;;;5012581;28;20466;-79
2023/07/28 16:33:46;;;;;;;7.70;6.87;;;20.60;99.90;;;;;;5000147;28;20463;-80
2023/07/28 16:36:16;;;;;;;11.20;10.20;;;20.60;99.90;;;;;;5020204;28;20482;-80
2023/07/28 16:39:01;;;;;;;196.83;176.83;;;20.60;99.90;;;;;;5019455;28;20443;-79
2023/07/28 16:41:35;;;;;;;10.43;9.33;;;20.70;99.90;;;;;;5009901;28;20479;-79
2023/07/28 16:44:42;;;;;;;;;;;;;;;;;;;;;
2023/07/28 16:47:44;;;;;;;8.07;7.13;;;20.60;99.90;;;;;;5020729;28;20439;-78
2023/07/28 16:50:25;;;;;;;6.80;6.30;;;20.60;99.90;;;;;;5019982;28;20867;-80
2023/07/28 16:53:30;;;;;;;6.87;6.20;;;20.30;99.90;;;;;;5015762;28;20458;-79
2023/07/28 16:56:11;;;;;;;7.20;6.60;;;20.50;99.90;;;;;;5016218;28;20499;-80
2023/07/28 16:59:01;;;;;;;7.37;6.77;;;20.50;99.90;;;;;;5019409;28;20448;-78
2023/07/28 17:02:13;;;;;;;7.47;6.77;;;20.50;99.90;;;;;;5012074;28;20497;-79
2023/07/28 17:04:59;;;;;;;7.23;6.63;;;20.50;99.90;;;;;;5011125;28;20551;-78
2023/07/28 17:07:46;;;;;;;7.23;6.63;;;20.30;99.90;;;;;;5018752;28;20454;-80
2023/07/28 17:10:26;;;;;;;8.50;7.70;;;20.40;99.90;;;;;;5020273;28;20416;-78
2023/07/28 17:13:03;;;;;;;8.10;7.40;;;20.30;99.90;;;;;;5007880;28;20494;-79
2023/07/28 17:22:35;;;;;;;8.27;7.57;;;20.30;99.90;;;;;;4924334;28;20517;-80
2023/07/28 17:25:32;;;;;;;8.43;7.63;;;20.30;99.90;;;;;;5018849;28;20484;-81
2023/07/28 17:28:04;;;;;;;7.80;7.10;;;20.40;99.90;;;;;;5018008;28;20420;-79
2023/07/28 17:30:39;;;;;;;7.83;7.33;;;20.40;99.90;;;;;;5019877;28;20452;-80
2023/07/28 17:33:19;;;;;;;8.60;7.80;;;20.40;99.90;;;;;;5014748;28;20455;-78
2023/07/28 17:36:15;;;;;;;7.93;7.33;;;20.30;99.90;;;;;;5018118;28;20455;-78
2023/07/28 17:39:18;;;;;;;9.60;8.70;;;20.30;99.90;;;;;;5017387;28;20478;-80
2023/07/28 17:41:59;;;;;;;8.27;7.53;;;20.30;99.90;;;;;;5021211;28;20549;-79
2023/07/28 17:44:41;;;;;;;8.70;7.90;;;20.30;99.90;;;;;;5023198;28;20819;-79
2023/07/28 17:47:11;;;;;;;7.83;7.23;;;20.30;99.90;;;;;;5023251;28;20466;-78
2023/07/28 17:49:54;;;;;;;10.43;9.53;;;20.30;99.90;;;;;;5021994;28;20462;-79
2023/07/28 17:52:30;;;;;;;7.90;7.20;;;20.20;99.90;;;;;;5023873;28;20454;-79
2023/07/28 17:55:02;;;;;;;8.93;7.90;;;20.40;99.90;;;;;;5021330;28;20689;-78
2023/07/28 17:57:43;;;;;;;7.90;7.30;;;20.40;99.90;;;;;;5022845;28;20448;-78